Time;durP1;ratioP1;P1;durP2;ratioP2;P2;SDS_P1;SDS_P2;PMS_P1;PMS_P2;Temp;Humidity;BMP_temperature;BMP_pressure;BME280_temperature;BME280_humidity;BME280_pressure;Samples;Min_cycle;Max_cycle;Signal;HPM_P1;HPM_P2
2021/03/18 00:00:38;;;;;;;2.67;1.40;;;15.30;99.90;;;;;;4920701;29;20276;-89
2021/03/18 00:03:08;;;;;;;3.80;1.47;;;15.30;99.90;;;;;;4920188;29;20629;-87
2021/03/18 00:05:39;;;;;;;3.23;1.90;;;15.20;99.90;;;;;;4918943;29;20335;-90
2021/03/18 00:08:09;;;;;;;7.10;1.67;;;15.30;99.90;;;;;;4919217;29;20237;-89
2021/03/18 00:10:43;;;;;;;3.17;1.70;;;15.20;99.90;;;;;;4919895;29;20232;-90
2021/03/18 00:13:14;;;;;;;4.13;1.70;;;15.10;99.90;;;;;;4919740;29;20217;-90
2021/03/18 00:15:48;;;;;;;3.93;1.63;;;14.80;99.90;;;;;;4904604;29;20324;-89
2021/03/18 00:18:21;;;;;;;4.20;2.00;;;14.70;99.90;;;;;;4900969;29;20293;-90
2021/03/18 00:20:51;;;;;;;2.17;1.80;;;14.50;99.90;;;;;;4901130;29;20258;-89
2021/03/18 00:23:22;;;;;;;3.10;1.50;;;14.50;99.90;;;;;;4902631;29;20292;-90
2021/03/18 00:25:55;;;;;;;5.70;1.67;;;14.40;99.90;;;;;;4901148;29;20300;-90
2021/03/18 00:28:25;;;;;;;2.43;1.60;;;14.30;99.90;;;;;;4928071;29;20239;-89
2021/03/18 00:30:55;;;;;;;1.87;1.43;;;14.30;99.90;;;;;;4918309;28;20308;-90
2021/03/18 00:33:28;;;;;;;3.23;1.70;;;14.00;99.90;;;;;;4904052;29;20246;-90
2021/03/18 00:35:58;;;;;;;3.97;1.87;;;13.80;99.90;;;;;;4902667;29;20241;-92
2021/03/18 00:38:30;;;;;;;3.27;1.60;;;13.70;99.90;;;;;;4905546;29;20289;-90
2021/03/18 00:41:06;;;;;;;4.17;1.70;;;13.80;99.90;;;;;;4907858;29;20209;-91
2021/03/18 00:43:36;;;;;;;2.40;1.20;;;13.70;99.90;;;;;;4931594;29;20247;-88
2021/03/18 00:46:06;;;;;;;5.97;1.53;;;13.60;99.90;;;;;;4928096;29;20228;-88
2021/03/18 00:48:37;;;;;;;3.27;1.70;;;13.50;99.90;;;;;;4928947;29;20237;-89
2021/03/18 00:51:09;;;;;;;3.10;1.97;;;13.40;99.90;;;;;;4928300;29;20216;-88
2021/03/18 00:53:41;;;;;;;4.57;1.60;;;13.30;99.90;;;;;;4929916;29;20241;-89
2021/03/18 00:56:15;;;;;;;2.63;1.53;;;13.20;99.90;;;;;;4939252;29;20283;-88
2021/03/18 00:58:47;;;;;;;1.80;1.30;;;13.10;99.90;;;;;;4913993;29;20237;-87
2021/03/18 01:01:22;;;;;;;3.10;1.90;;;13.00;99.90;;;;;;4911633;29;20213;-89
2021/03/18 01:03:53;;;;;;;3.03;2.40;;;12.90;99.90;;;;;;4904202;29;20215;-89
2021/03/18 01:06:25;;;;;;;3.10;1.57;;;12.90;99.90;;;;;;4914486;29;20239;-93
2021/03/18 01:08:58;;;;;;;2.30;1.40;;;12.90;99.90;;;;;;4920892;29;20217;-90
2021/03/18 01:11:33;;;;;;;2.87;1.50;;;13.00;99.90;;;;;;4913278;29;20209;-90
2021/03/18 01:14:05;;;;;;;3.33;1.50;;;13.00;99.90;;;;;;4903333;29;20224;-88
2021/03/18 01:16:38;;;;;;;2.53;1.50;;;13.10;99.90;;;;;;4919299;29;20231;-89
2021/03/18 01:19:12;;;;;;;3.07;1.43;;;13.10;99.90;;;;;;4918416;29;20212;-88
2021/03/18 01:21:45;;;;;;;4.57;1.57;;;13.10;99.90;;;;;;4920078;29;20707;-89
2021/03/18 01:24:15;;;;;;;2.10;1.30;;;13.10;99.90;;;;;;4911783;29;20245;-89
2021/03/18 01:26:47;;;;;;;4.07;1.70;;;13.10;99.90;;;;;;4919236;29;20296;-89
2021/03/18 01:29:17;;;;;;;1.70;1.27;;;13.10;99.90;;;;;;4900904;29;20580;-89
2021/03/18 01:31:47;;;;;;;2.83;1.20;;;13.10;99.90;;;;;;4919204;29;20213;-89
2021/03/18 01:34:17;;;;;;;2.70;1.13;;;13.00;99.90;;;;;;4931656;29;20216;-88
2021/03/18 01:36:48;;;;;;;2.17;1.20;;;12.90;99.90;;;;;;4937928;29;20240;-90
2021/03/18 01:39:19;;;;;;;3.20;1.53;;;12.80;99.90;;;;;;4940016;29;20219;-89
2021/03/18 01:41:50;;;;;;;10.50;6.40;;;12.70;99.90;;;;;;4924123;29;20258;-88
2021/03/18 01:44:19;;;;;;;7.03;4.73;;;12.50;99.90;;;;;;4924191;29;20222;-88
2021/03/18 01:46:50;;;;;;;16.20;8.80;;;12.40;99.90;;;;;;4919690;29;20249;-92
2021/03/18 01:49:20;;;;;;;35.10;21.70;;;12.30;99.90;;;;;;4919881;29;20265;-89
2021/03/18 01:51:50;;;;;;;16.23;9.43;;;12.10;99.90;;;;;;4923590;29;20233;-88
2021/03/18 01:54:20;;;;;;;7.80;5.50;;;12.00;99.90;;;;;;4927464;29;20213;-89
2021/03/18 01:56:54;;;;;;;4.43;2.90;;;11.90;99.90;;;;;;4926847;29;20233;-90
2021/03/18 01:59:27;;;;;;;3.77;1.57;;;11.80;99.90;;;;;;4924236;29;20213;-89
2021/03/18 02:01:57;;;;;;;2.73;1.87;;;11.70;99.90;;;;;;4924475;29;20284;-89
2021/03/18 02:04:29;;;;;;;8.53;3.20;;;11.60;99.90;;;;;;4926929;29;20299;-88
2021/03/18 02:07:00;;;;;;;3.37;2.30;;;11.50;99.90;;;;;;4924759;29;20208;-88
2021/03/18 02:09:30;;;;;;;2.53;1.63;;;11.30;99.90;;;;;;4924724;29;20631;-89
2021/03/18 02:12:02;;;;;;;3.03;1.43;;;11.20;99.90;;;;;;4924409;29;20224;-88
2021/03/18 02:14:32;;;;;;;5.20;1.53;;;11.00;99.90;;;;;;4928251;29;20205;-90
2021/03/18 02:17:06;;;;;;;2.17;1.30;;;10.90;99.90;;;;;;4912895;29;20242;-90
2021/03/18 02:20:20;;;;;;;3.90;1.40;;;10.80;99.90;;;;;;4911405;29;20214;-89
2021/03/18 02:23:17;;;;;;;4.20;1.20;;;10.80;99.90;;;;;;4921191;29;20225;-89
2021/03/18 02:25:59;;;;;;;2.13;1.40;;;10.60;99.90;;;;;;4914522;29;20240;-89
2021/03/18 02:28:51;;;;;;;2.10;1.50;;;10.50;99.90;;;;;;4912176;29;20272;-90
2021/03/18 02:31:43;;;;;;;2.17;1.30;;;10.40;99.90;;;;;;4910833;29;20699;-90
2021/03/18 02:34:41;;;;;;;2.87;1.17;;;10.20;99.90;;;;;;4919585;29;20210;-89
2021/03/18 02:37:13;;;;;;;3.03;1.70;;;10.10;99.90;;;;;;4903741;29;20242;-87
2021/03/18 02:39:49;;;;;;;2.27;1.43;;;10.00;99.90;;;;;;4916412;29;20225;-88
2021/03/18 02:42:22;;;;;;;2.83;1.97;;;9.90;99.90;;;;;;4921520;29;20240;-88
2021/03/18 02:44:57;;;;;;;2.83;1.50;;;9.80;99.90;;;;;;4912974;29;20194;-89
2021/03/18 02:47:29;;;;;;;3.10;1.60;;;9.80;99.90;;;;;;4921329;29;20205;-89
2021/03/18 02:50:02;;;;;;;4.70;1.73;;;9.70;99.90;;;;;;4921571;29;20666;-88
2021/03/18 02:52:40;;;;;;;2.43;1.60;;;9.60;99.90;;;;;;4921628;29;20721;-89
2021/03/18 02:55:13;;;;;;;2.40;1.50;;;9.50;99.90;;;;;;4922414;29;20208;-89
2021/03/18 02:57:49;;;;;;;2.60;1.40;;;9.40;99.90;;;;;;4923559;29;20315;-90
2021/03/18 03:00:20;;;;;;;2.97;1.23;;;9.30;99.90;;;;;;4921315;29;20350;-89
2021/03/18 03:02:52;;;;;;;9.33;7.17;;;9.30;99.90;;;;;;4917480;29;20269;-89
2021/03/18 03:05:25;;;;;;;5.30;4.50;;;9.20;99.90;;;;;;4927467;29;20224;-88
2021/03/18 03:07:57;;;;;;;4.57;2.57;;;9.20;99.90;;;;;;4928640;29;20216;-88
2021/03/18 03:10:28;;;;;;;3.47;1.63;;;9.10;99.90;;;;;;4927351;29;20220;-88
2021/03/18 03:12:59;;;;;;;3.47;1.53;;;9.10;99.90;;;;;;4918248;29;20209;-89
2021/03/18 03:15:31;;;;;;;2.80;1.50;;;9.00;99.90;;;;;;4922727;29;20213;-88
2021/03/18 03:18:06;;;;;;;1.97;1.53;;;9.00;99.90;;;;;;4920152;29;20213;-88
2021/03/18 03:20:38;;;;;;;2.77;2.43;;;8.90;99.90;;;;;;4920500;29;20207;-89
2021/03/18 03:23:11;;;;;;;2.40;1.90;;;8.90;99.90;;;;;;4920524;29;20233;-89
2021/03/18 03:25:42;;;;;;;3.73;3.00;;;8.90;99.90;;;;;;4917239;29;20237;-89
2021/03/18 03:28:15;;;;;;;4.07;2.97;;;8.90;99.90;;;;;;4917507;29;20278;-90
2021/03/18 03:30:47;;;;;;;4.33;2.27;;;8.90;99.90;;;;;;4922269;29;20231;-89
2021/03/18 03:33:17;;;;;;;2.57;1.33;;;8.90;99.90;;;;;;4919917;29;20240;-89
2021/03/18 03:35:48;;;;;;;2.10;1.23;;;8.90;99.90;;;;;;4921907;29;20205;-88
2021/03/18 03:38:20;;;;;;;2.60;1.83;;;8.80;99.90;;;;;;4907406;29;20222;-89
2021/03/18 03:40:51;;;;;;;4.80;1.50;;;8.80;99.90;;;;;;4914166;29;20231;-89
2021/03/18 03:43:21;;;;;;;4.93;1.33;;;8.80;99.90;;;;;;4921384;29;20240;-90
2021/03/18 03:45:53;;;;;;;2.80;1.57;;;8.90;99.90;;;;;;4921547;29;20220;-88
2021/03/18 03:48:24;;;;;;;4.63;1.50;;;8.80;99.90;;;;;;4922263;29;20233;-89
2021/03/18 03:50:56;;;;;;;1.60;1.37;;;8.70;99.90;;;;;;4921401;29;20212;-88
2021/03/18 03:53:38;;;;;;;2.83;1.50;;;8.70;99.90;;;;;;4921774;29;20205;-89
2021/03/18 03:56:20;;;;;;;2.33;1.63;;;8.70;99.90;;;;;;4954056;28;20239;-89
2021/03/18 03:58:54;;;;;;;2.07;1.50;;;8.70;99.90;;;;;;4930958;29;20265;-89
2021/03/18 04:01:30;;;;;;;2.93;1.60;;;8.70;99.90;;;;;;4937326;29;20216;-88
2021/03/18 04:04:12;;;;;;;1.77;1.37;;;8.70;99.90;;;;;;4941051;29;20196;-96
2021/03/18 04:06:48;;;;;;;2.43;1.80;;;8.80;99.90;;;;;;4938192;29;20227;-89
2021/03/18 04:09:20;;;;;;;2.40;1.60;;;8.90;99.90;;;;;;4934072;29;20208;-88
2021/03/18 04:11:53;;;;;;;6.83;2.57;;;9.00;99.90;;;;;;4931887;29;20217;-88
2021/03/18 04:14:27;;;;;;;6.00;2.70;;;9.00;99.90;;;;;;4914350;29;20273;-87
2021/03/18 04:17:01;;;;;;;4.90;2.37;;;9.00;99.90;;;;;;4914544;29;20367;-87
2021/03/18 04:19:34;;;;;;;6.20;2.27;;;8.90;99.90;;;;;;4920606;29;20577;-88
2021/03/18 04:22:08;;;;;;;3.23;2.00;;;8.80;99.90;;;;;;4567087;28;9999905;-85
2021/03/18 04:24:57;;;;;;;3.07;2.20;;;8.70;99.90;;;;;;4911555;29;20522;-86
2021/03/18 04:27:36;;;;;;;5.90;2.47;;;8.60;99.90;;;;;;4916321;29;20221;-84
2021/03/18 04:30:10;;;;;;;2.40;1.80;;;8.60;99.90;;;;;;4913069;29;20616;-85
2021/03/18 04:32:42;;;;;;;7.47;2.10;;;8.50;99.90;;;;;;4914272;29;20237;-86
2021/03/18 04:35:15;;;;;;;2.17;1.90;;;8.40;99.90;;;;;;4917680;29;20227;-89
2021/03/18 04:37:49;;;;;;;2.23;1.70;;;8.40;99.90;;;;;;4915126;29;20301;-86
2021/03/18 04:40:25;;;;;;;2.40;1.70;;;8.30;99.90;;;;;;4916196;29;20292;-86
2021/03/18 04:42:56;;;;;;;4.80;2.43;;;8.30;99.90;;;;;;4915507;29;20240;-85
2021/03/18 04:45:27;;;;;;;3.17;2.10;;;8.20;99.90;;;;;;4922587;29;20245;-86
2021/03/18 04:47:59;;;;;;;2.60;2.27;;;8.20;99.90;;;;;;4923195;29;20285;-86
2021/03/18 04:50:31;;;;;;;4.63;2.87;;;8.10;99.90;;;;;;4913814;29;20209;-87
2021/03/18 04:53:01;;;;;;;7.23;3.67;;;8.10;99.90;;;;;;4918796;29;20312;-88
2021/03/18 04:55:33;;;;;;;7.37;5.03;;;8.00;99.90;;;;;;4918561;29;20201;-86
2021/03/18 04:58:07;;;;;;;8.93;5.27;;;7.90;99.90;;;;;;4903224;29;20233;-88
2021/03/18 05:00:40;;;;;;;8.43;6.03;;;7.80;99.90;;;;;;4918453;29;20201;-87
2021/03/18 05:03:11;;;;;;;11.20;7.17;;;7.80;99.90;;;;;;4918906;29;20706;-87
2021/03/18 05:05:42;;;;;;;9.77;7.13;;;7.80;99.90;;;;;;4919375;29;20259;-87
2021/03/18 05:08:14;;;;;;;9.13;6.90;;;7.70;99.90;;;;;;4917412;29;20280;-87
2021/03/18 05:10:49;;;;;;;8.10;5.27;;;7.70;99.90;;;;;;4904327;29;20213;-87
2021/03/18 05:13:19;;;;;;;6.53;5.30;;;7.60;99.90;;;;;;4907992;29;20267;-87
2021/03/18 05:15:53;;;;;;;6.63;4.53;;;7.50;99.90;;;;;;4923207;29;20200;-88
2021/03/18 05:18:33;;;;;;;7.00;3.30;;;7.50;99.90;;;;;;4932806;29;20244;-87
2021/03/18 05:21:06;;;;;;;5.20;3.27;;;7.40;99.90;;;;;;4923263;29;20213;-87
2021/03/18 05:23:38;;;;;;;5.53;3.53;;;7.40;99.90;;;;;;4925404;29;20213;-88
2021/03/18 05:26:11;;;;;;;5.13;3.20;;;7.40;99.90;;;;;;4923408;29;20279;-88
2021/03/18 05:28:42;;;;;;;4.93;3.00;;;7.30;99.90;;;;;;4923776;29;20292;-88
2021/03/18 05:31:13;;;;;;;5.37;3.40;;;7.30;99.90;;;;;;4924591;29;20271;-88
2021/03/18 05:33:45;;;;;;;4.10;2.60;;;7.30;99.90;;;;;;4927101;29;20207;-96
2021/03/18 05:36:16;;;;;;;6.17;2.53;;;7.30;99.90;;;;;;4925112;29;20236;-90
2021/03/18 05:38:46;;;;;;;5.50;2.33;;;7.30;99.90;;;;;;4925795;29;20219;-89
2021/03/18 05:41:20;;;;;;;4.70;2.50;;;7.30;99.90;;;;;;4908014;29;20212;-88
2021/03/18 05:43:51;;;;;;;2.90;2.33;;;7.20;99.90;;;;;;4904694;29;20446;-88
2021/03/18 05:46:21;;;;;;;3.57;2.37;;;7.20;99.90;;;;;;4903628;29;20264;-88
2021/03/18 05:48:55;;;;;;;5.13;2.50;;;7.20;99.90;;;;;;4902740;29;20305;-88
2021/03/18 05:51:26;;;;;;;4.93;2.80;;;7.20;99.90;;;;;;4913718;29;20268;-88
2021/03/18 05:53:58;;;;;;;5.47;2.40;;;7.20;99.90;;;;;;4941196;29;20216;-88
2021/03/18 05:56:30;;;;;;;6.53;2.47;;;7.10;99.90;;;;;;4930771;28;20236;-87
2021/03/18 05:59:01;;;;;;;3.83;2.70;;;7.10;99.90;;;;;;4907311;29;20243;-87
2021/03/18 06:01:33;;;;;;;4.00;2.50;;;7.00;99.90;;;;;;4905524;29;20351;-87
2021/03/18 06:04:04;;;;;;;3.87;2.53;;;7.00;99.90;;;;;;4902327;29;20220;-87
2021/03/18 06:06:37;;;;;;;4.60;2.07;;;7.00;99.90;;;;;;4908977;29;20288;-86
2021/03/18 06:09:09;;;;;;;6.60;2.57;;;7.00;99.90;;;;;;4922559;29;20268;-87
2021/03/18 06:11:43;;;;;;;3.93;2.23;;;7.00;99.90;;;;;;4923152;29;20216;-88
2021/03/18 06:14:14;;;;;;;3.83;2.23;;;7.00;99.90;;;;;;4922771;29;20271;-88
2021/03/18 06:16:45;;;;;;;4.57;2.50;;;7.00;99.90;;;;;;4921378;29;20683;-89
2021/03/18 06:19:17;;;;;;;5.30;2.13;;;6.90;99.90;;;;;;4941185;28;20247;-87
2021/03/18 06:21:51;;;;;;;3.67;2.37;;;6.90;99.90;;;;;;4962154;28;20199;-87
2021/03/18 06:24:22;;;;;;;4.90;2.10;;;6.90;99.90;;;;;;4939750;29;20196;-87
2021/03/18 06:26:58;;;;;;;2.77;2.20;;;6.90;99.90;;;;;;4932748;29;20197;-88
2021/03/18 06:29:30;;;;;;;2.80;2.17;;;6.80;99.90;;;;;;4921496;29;20713;-87
2021/03/18 06:32:17;;;;;;;4.97;2.10;;;6.80;99.90;;;;;;4920921;29;20237;-89
2021/03/18 06:34:50;;;;;;;3.37;1.93;;;6.80;99.90;;;;;;4903914;29;20213;-87
2021/03/18 06:37:36;;;;;;;4.70;2.50;;;6.70;99.90;;;;;;4902479;29;20324;-89
2021/03/18 06:40:14;;;;;;;4.43;2.13;;;6.70;99.90;;;;;;4910450;29;20284;-88
2021/03/18 06:42:57;;;;;;;5.00;2.37;;;6.60;99.90;;;;;;4914162;29;20626;-87
2021/03/18 06:45:31;;;;;;;4.23;2.43;;;6.60;99.90;;;;;;4922147;29;20216;-89
2021/03/18 06:48:04;;;;;;;7.87;2.40;;;6.60;99.90;;;;;;4920880;29;20212;-88
2021/03/18 06:50:36;;;;;;;3.50;2.43;;;6.60;99.90;;;;;;4924418;29;20256;-89
2021/03/18 06:53:20;;;;;;;4.07;2.00;;;6.60;99.90;;;;;;4925741;29;20241;-88
2021/03/18 06:55:52;;;;;;;3.33;2.43;;;6.50;99.90;;;;;;4938361;29;20228;-87
2021/03/18 06:58:26;;;;;;;3.67;2.37;;;6.50;99.90;;;;;;4945829;29;20267;-89
2021/03/18 07:01:06;;;;;;;3.63;2.20;;;6.50;99.90;;;;;;4932830;29;20209;-88
2021/03/18 07:03:37;;;;;;;3.73;2.40;;;6.50;99.90;;;;;;4923007;29;20212;-88
2021/03/18 07:06:11;;;;;;;4.53;2.20;;;6.40;99.90;;;;;;4922290;29;20205;-88
2021/03/18 07:08:42;;;;;;;3.97;2.23;;;6.40;99.90;;;;;;4936063;29;20630;-88
2021/03/18 07:11:21;;;;;;;5.17;2.53;;;6.40;99.90;;;;;;4902920;29;20300;-87
2021/03/18 07:13:54;;;;;;;4.53;2.23;;;6.40;99.90;;;;;;4916074;29;20222;-87
2021/03/18 07:16:25;;;;;;;2.50;2.03;;;6.30;99.90;;;;;;4906781;29;20208;-86
2021/03/18 07:19:00;;;;;;;4.07;2.00;;;6.30;99.90;;;;;;4923931;29;20244;-86
2021/03/18 07:21:36;;;;;;;4.47;2.60;;;6.30;99.90;;;;;;4928678;29;20239;-86
2021/03/18 07:24:21;;;;;;;4.23;2.00;;;6.30;99.90;;;;;;4927194;29;20201;-86
2021/03/18 07:26:53;;;;;;;4.50;2.60;;;6.30;99.90;;;;;;4925059;29;20213;-85
2021/03/18 07:29:31;;;;;;;5.43;2.73;;;6.20;99.90;;;;;;4932830;28;20199;-84
2021/03/18 07:32:02;;;;;;;4.60;2.70;;;6.20;99.90;;;;;;4939612;28;20227;-85
2021/03/18 07:34:33;;;;;;;4.53;2.60;;;6.20;99.90;;;;;;4939197;29;20209;-87
2021/03/18 07:37:08;;;;;;;4.37;3.03;;;6.20;99.90;;;;;;4908522;29;20232;-87
2021/03/18 07:39:40;;;;;;;4.37;2.43;;;6.20;99.90;;;;;;4906352;29;20241;-87
2021/03/18 07:42:12;;;;;;;3.07;2.70;;;6.20;99.90;;;;;;4906479;29;20230;-87
2021/03/18 07:44:46;;;;;;;4.43;2.53;;;6.10;99.90;;;;;;4903929;29;20287;-87
2021/03/18 07:47:17;;;;;;;3.70;2.40;;;6.10;99.90;;;;;;4901450;29;20285;-87
2021/03/18 07:49:50;;;;;;;5.57;2.57;;;6.10;99.90;;;;;;4902087;29;20213;-88
2021/03/18 07:52:24;;;;;;;4.63;2.80;;;6.10;99.90;;;;;;4904011;29;20223;-87
2021/03/18 07:54:56;;;;;;;5.53;3.30;;;6.10;99.90;;;;;;4920666;29;20216;-87
2021/03/18 07:57:27;;;;;;;6.43;3.40;;;6.00;99.90;;;;;;4919056;29;20237;-88
2021/03/18 08:00:11;;;;;;;9.97;4.03;;;6.00;99.90;;;;;;4919427;29;20211;-87
2021/03/18 08:02:42;;;;;;;5.20;2.83;;;6.00;99.90;;;;;;4906965;29;20215;-87
2021/03/18 08:05:13;;;;;;;5.93;3.17;;;6.00;99.90;;;;;;4901545;29;20297;-88
2021/03/18 08:07:46;;;;;;;5.57;2.80;;;5.90;99.90;;;;;;4900758;29;20210;-87
2021/03/18 08:10:37;;;;;;;6.27;3.20;;;5.90;99.90;;;;;;4901446;29;20659;-88
2021/03/18 08:13:06;;;;;;;4.37;2.77;;;5.90;99.90;;;;;;4901464;29;20663;-88
2021/03/18 08:15:47;;;;;;;3.87;2.70;;;5.90;99.90;;;;;;4901201;29;20279;-87
2021/03/18 08:18:39;;;;;;;4.50;2.60;;;5.90;99.90;;;;;;4901057;29;20237;-87
2021/03/18 08:21:15;;;;;;;4.87;2.87;;;5.90;99.90;;;;;;4922316;29;20266;-87
2021/03/18 08:23:56;;;;;;;3.17;2.23;;;5.80;99.90;;;;;;4923361;29;20220;-87
2021/03/18 08:26:49;;;;;;;3.73;2.47;;;5.80;99.90;;;;;;4922163;29;20243;-87
2021/03/18 08:29:25;;;;;;;3.50;2.30;;;5.70;99.90;;;;;;4906658;29;20286;-87
2021/03/18 08:32:27;;;;;;;6.53;2.17;;;5.70;99.90;;;;;;4901934;29;20224;-86
2021/03/18 08:34:59;;;;;;;3.73;2.23;;;5.70;99.90;;;;;;4921963;28;20213;-86
2021/03/18 08:37:39;;;;;;;3.13;1.93;;;5.60;99.90;;;;;;4938937;29;20276;-87
2021/03/18 08:40:29;;;;;;;4.97;2.33;;;5.60;99.90;;;;;;4937399;29;20193;-87
2021/03/18 08:43:06;;;;;;;2.97;2.00;;;5.60;99.90;;;;;;4936097;29;20207;-86
2021/03/18 08:45:41;;;;;;;2.27;2.00;;;5.60;99.90;;;;;;4943107;28;20209;-87
2021/03/18 08:48:20;;;;;;;3.33;1.87;;;5.60;99.90;;;;;;4919000;29;20212;-88
2021/03/18 08:51:03;;;;;;;3.17;2.00;;;5.60;99.90;;;;;;4921061;29;20209;-88
2021/03/18 08:53:39;;;;;;;2.90;1.70;;;5.60;99.90;;;;;;4922318;29;20219;-87
2021/03/18 08:56:10;;;;;;;3.07;1.70;;;5.60;99.90;;;;;;4917386;29;20210;-88
2021/03/18 08:58:58;;;;;;;3.30;2.00;;;5.60;99.90;;;;;;4921152;29;20244;-88
2021/03/18 09:01:28;;;;;;;2.10;1.90;;;5.60;99.90;;;;;;4914003;29;20650;-87
2021/03/18 09:04:08;;;;;;;4.07;2.47;;;5.60;99.90;;;;;;4924921;29;20232;-87
2021/03/18 09:06:47;;;;;;;3.10;2.27;;;5.60;99.90;;;;;;4919724;29;20212;-88
2021/03/18 09:09:20;;;;;;;3.03;2.30;;;5.60;99.90;;;;;;4920850;29;20201;-88
2021/03/18 09:11:51;;;;;;;3.87;2.07;;;5.50;99.90;;;;;;4926365;29;20213;-88
2021/03/18 09:14:21;;;;;;;3.57;2.10;;;5.50;99.90;;;;;;4909751;29;20398;-87
2021/03/18 09:16:52;;;;;;;3.70;2.37;;;5.50;99.90;;;;;;4919054;29;20323;-87
2021/03/18 09:19:30;;;;;;;5.20;1.90;;;5.50;99.90;;;;;;4925502;29;20205;-87
2021/03/18 09:22:01;;;;;;;4.20;2.70;;;5.50;99.90;;;;;;4908761;29;20290;-88
2021/03/18 09:24:42;;;;;;;4.77;2.60;;;5.50;99.90;;;;;;4899801;29;20225;-86
2021/03/18 09:27:13;;;;;;;7.43;2.03;;;5.40;99.90;;;;;;4915089;29;20268;-88
2021/03/18 09:29:45;;;;;;;2.40;1.70;;;5.40;99.90;;;;;;4918723;29;20220;-87
2021/03/18 09:32:19;;;;;;;3.77;2.00;;;5.50;99.90;;;;;;4917966;29;20212;-87
2021/03/18 09:34:53;;;;;;;2.53;1.93;;;5.50;99.90;;;;;;4919176;29;20217;-87
2021/03/18 09:37:37;;;;;;;2.37;1.77;;;5.50;99.90;;;;;;4917336;29;20237;-87
2021/03/18 09:40:09;;;;;;;2.30;1.80;;;5.50;99.90;;;;;;4905117;29;20289;-87
2021/03/18 09:42:41;;;;;;;2.97;1.83;;;5.50;99.90;;;;;;4901234;29;20220;-86
2021/03/18 09:45:20;;;;;;;3.33;1.90;;;5.60;99.90;;;;;;4920849;29;20755;-87
2021/03/18 09:47:52;;;;;;;2.47;1.80;;;5.60;99.90;;;;;;4923679;28;20657;-87
2021/03/18 09:50:32;;;;;;;3.37;2.10;;;5.70;99.90;;;;;;4920293;29;20213;-88
2021/03/18 09:53:11;;;;;;;3.73;1.87;;;5.70;99.90;;;;;;4912728;29;20213;-88
2021/03/18 09:55:42;;;;;;;2.80;2.20;;;5.70;99.90;;;;;;4918545;29;20323;-88
2021/03/18 09:58:15;;;;;;;4.63;1.90;;;5.70;99.90;;;;;;4901342;29;20261;-87
2021/03/18 10:00:46;;;;;;;3.10;1.90;;;5.70;99.90;;;;;;4900964;29;20225;-88
2021/03/18 10:03:17;;;;;;;6.80;2.30;;;5.70;99.90;;;;;;4899270;29;20212;-88
2021/03/18 10:05:49;;;;;;;2.50;1.80;;;5.70;99.90;;;;;;4906257;29;20208;-88
2021/03/18 10:08:24;;;;;;;3.47;2.20;;;5.70;99.90;;;;;;4921167;29;20220;-87
2021/03/18 10:10:56;;;;;;;2.20;2.00;;;5.70;99.90;;;;;;4920679;29;20231;-88
2021/03/18 10:13:28;;;;;;;6.17;2.30;;;5.70;99.90;;;;;;4921458;29;20734;-88
2021/03/18 10:15:58;;;;;;;2.43;2.00;;;5.60;99.90;;;;;;4918493;29;20236;-87
2021/03/18 10:18:29;;;;;;;2.93;1.93;;;5.60;99.90;;;;;;4918237;29;20611;-88
2021/03/18 10:21:05;;;;;;;2.43;1.83;;;5.70;99.90;;;;;;4939569;29;20276;-87
2021/03/18 10:23:36;;;;;;;3.63;2.30;;;5.70;99.90;;;;;;4931621;29;20264;-87
2021/03/18 10:26:07;;;;;;;4.33;2.63;;;5.60;99.90;;;;;;4922593;29;20215;-87
2021/03/18 10:28:38;;;;;;;4.73;1.90;;;5.60;99.90;;;;;;4922355;29;20280;-88
2021/03/18 10:31:09;;;;;;;3.53;2.10;;;5.60;99.90;;;;;;4922317;29;20224;-87
2021/03/18 10:33:41;;;;;;;3.10;2.20;;;5.60;99.90;;;;;;4922682;29;20216;-86
2021/03/18 10:36:12;;;;;;;4.17;2.10;;;5.60;99.90;;;;;;4923715;29;20670;-87
2021/03/18 10:38:43;;;;;;;2.40;2.07;;;5.60;99.90;;;;;;4921342;29;20292;-86
2021/03/18 10:41:14;;;;;;;3.17;2.23;;;5.50;99.90;;;;;;4924471;29;20652;-87
2021/03/18 10:43:46;;;;;;;3.10;1.87;;;5.50;99.90;;;;;;4924432;29;20573;-87
2021/03/18 10:46:19;;;;;;;3.10;2.27;;;5.50;99.90;;;;;;4925714;29;20245;-87
2021/03/18 10:48:51;;;;;;;2.80;2.33;;;5.50;99.90;;;;;;4925721;29;20217;-88
2021/03/18 10:51:25;;;;;;;4.00;2.53;;;5.50;99.90;;;;;;4929139;29;20217;-87
2021/03/18 10:53:56;;;;;;;3.53;2.20;;;5.50;99.90;;;;;;4931482;29;20653;-87
2021/03/18 10:56:30;;;;;;;3.97;2.43;;;5.50;99.90;;;;;;4910937;29;20687;-86
2021/03/18 10:59:14;;;;;;;3.33;2.20;;;5.40;99.90;;;;;;4923715;29;20672;-87
2021/03/18 11:01:44;;;;;;;4.07;2.40;;;5.40;99.90;;;;;;4923327;29;20205;-87
2021/03/18 11:04:15;;;;;;;3.23;2.10;;;5.40;99.90;;;;;;4926848;29;20213;-86
2021/03/18 11:06:55;;;;;;;4.70;2.33;;;5.30;99.90;;;;;;4930741;29;20197;-87
2021/03/18 11:09:27;;;;;;;7.53;4.00;;;5.20;99.90;;;;;;4920176;29;20218;-86
2021/03/18 11:12:00;;;;;;;4.13;2.73;;;5.10;99.90;;;;;;4918558;29;20246;-87
2021/03/18 11:14:31;;;;;;;3.63;2.40;;;5.10;99.90;;;;;;4914349;29;20722;-88
2021/03/18 11:17:08;;;;;;;4.70;2.73;;;5.00;99.90;;;;;;4916010;29;20274;-86
2021/03/18 11:19:39;;;;;;;4.03;2.77;;;5.00;99.90;;;;;;4910129;29;20220;-87
2021/03/18 11:22:11;;;;;;;3.47;2.43;;;4.90;99.90;;;;;;4922462;29;20208;-88
2021/03/18 11:24:43;;;;;;;2.60;2.10;;;4.80;99.90;;;;;;4919094;29;20232;-88
2021/03/18 11:27:14;;;;;;;4.63;2.20;;;4.80;99.90;;;;;;4939852;29;20227;-87
2021/03/18 11:29:45;;;;;;;3.70;2.13;;;4.70;99.90;;;;;;4939378;29;20209;-88
2021/03/18 11:32:23;;;;;;;3.67;2.40;;;4.70;99.90;;;;;;4920618;29;20240;-87
2021/03/18 11:34:56;;;;;;;3.77;2.10;;;4.70;99.90;;;;;;4921462;29;20212;-87
2021/03/18 11:37:29;;;;;;;2.67;1.87;;;4.70;99.90;;;;;;4917908;29;20273;-86
2021/03/18 11:40:00;;;;;;;3.77;2.00;;;4.70;99.90;;;;;;4901334;29;20210;-86
2021/03/18 11:42:31;;;;;;;2.87;2.13;;;4.60;99.90;;;;;;4903098;29;20209;-87
2021/03/18 11:45:03;;;;;;;5.30;2.37;;;4.60;99.90;;;;;;4904091;29;20224;-86
2021/03/18 11:47:33;;;;;;;3.83;2.57;;;4.60;99.90;;;;;;4902347;29;20209;-87
2021/03/18 11:50:06;;;;;;;3.77;2.60;;;4.70;99.90;;;;;;4920909;29;20574;-87
2021/03/18 11:52:38;;;;;;;3.93;1.97;;;4.70;99.90;;;;;;4920871;29;20276;-87
2021/03/18 11:55:10;;;;;;;2.13;1.80;;;4.60;99.90;;;;;;4923486;29;20220;-87
2021/03/18 11:57:40;;;;;;;4.73;2.30;;;4.70;99.90;;;;;;4919425;29;20327;-86
2021/03/18 12:00:13;;;;;;;2.50;2.17;;;4.60;99.90;;;;;;4918703;29;20304;-87
2021/03/18 12:02:44;;;;;;;4.00;2.40;;;4.60;99.90;;;;;;4900829;29;20216;-87
2021/03/18 12:05:36;;;;;;;3.60;2.40;;;4.60;99.90;;;;;;4919391;29;20213;-87
2021/03/18 12:08:12;;;;;;;4.67;2.27;;;4.60;99.90;;;;;;4921390;29;20244;-86
2021/03/18 12:11:03;;;;;;;3.03;2.30;;;4.60;99.90;;;;;;4919472;29;20219;-87
2021/03/18 12:13:35;;;;;;;3.63;2.17;;;4.60;99.90;;;;;;4920117;29;20237;-87
2021/03/18 12:16:07;;;;;;;3.23;2.20;;;4.50;99.90;;;;;;4920159;29;20678;-86
2021/03/18 12:18:37;;;;;;;4.63;2.40;;;4.50;99.90;;;;;;4918185;29;20244;-86
2021/03/18 12:21:08;;;;;;;3.57;2.20;;;4.50;99.90;;;;;;4920056;29;20280;-87
2021/03/18 12:23:42;;;;;;;3.90;1.93;;;4.50;99.90;;;;;;4918827;29;20325;-87
2021/03/18 12:26:14;;;;;;;2.43;1.90;;;4.50;99.90;;;;;;4919798;29;20252;-86
2021/03/18 12:28:45;;;;;;;5.03;2.50;;;4.50;99.90;;;;;;4919724;29;20276;-87
2021/03/18 12:31:16;;;;;;;2.90;2.10;;;4.50;99.90;;;;;;4922650;29;20215;-87
2021/03/18 12:33:46;;;;;;;3.10;2.10;;;4.50;99.90;;;;;;4929326;29;20593;-86
2021/03/18 12:36:17;;;;;;;4.13;2.23;;;4.50;99.90;;;;;;4928034;29;20212;-87
2021/03/18 12:38:50;;;;;;;2.97;2.10;;;4.50;99.90;;;;;;4921284;29;20291;-88
2021/03/18 12:41:31;;;;;;;5.57;1.90;;;4.50;99.90;;;;;;4892059;29;20217;-87
2021/03/18 12:44:03;;;;;;;2.60;1.53;;;4.50;99.90;;;;;;4920366;29;20212;-86
2021/03/18 12:46:35;;;;;;;3.83;2.33;;;4.50;99.90;;;;;;4918397;29;20217;-86
2021/03/18 12:49:08;;;;;;;2.97;2.00;;;4.50;99.90;;;;;;4920498;29;20248;-87
2021/03/18 12:51:39;;;;;;;2.70;1.80;;;4.50;99.90;;;;;;4900470;29;20220;-87
2021/03/18 12:54:11;;;;;;;5.77;2.10;;;4.50;99.90;;;;;;4910242;29;20208;-87
2021/03/18 12:56:41;;;;;;;3.23;2.60;;;4.40;99.90;;;;;;4922029;29;20217;-87
2021/03/18 12:59:12;;;;;;;4.07;2.00;;;4.50;99.90;;;;;;4932577;29;20234;-86
2021/03/18 13:01:43;;;;;;;2.20;2.00;;;4.40;99.90;;;;;;4937167;29;20224;-87
2021/03/18 13:04:14;;;;;;;2.40;2.07;;;4.50;99.90;;;;;;4938128;29;20197;-87
2021/03/18 13:06:45;;;;;;;2.13;1.93;;;4.50;99.90;;;;;;4922764;29;20213;-85
2021/03/18 13:09:18;;;;;;;2.43;1.77;;;4.60;99.90;;;;;;4921033;29;20615;-86
2021/03/18 13:11:51;;;;;;;2.77;1.93;;;4.60;99.90;;;;;;4947614;28;20209;-85
2021/03/18 13:14:23;;;;;;;3.47;2.40;;;4.60;99.90;;;;;;4928155;29;20208;-87
2021/03/18 13:16:53;;;;;;;4.43;2.00;;;4.60;99.90;;;;;;4928614;29;20307;-87
2021/03/18 13:19:25;;;;;;;4.00;2.00;;;4.60;99.90;;;;;;4925412;29;20319;-87
2021/03/18 13:21:56;;;;;;;2.17;1.90;;;4.70;99.90;;;;;;4932264;29;20237;-87
2021/03/18 13:24:29;;;;;;;3.17;2.10;;;4.70;99.90;;;;;;4939904;28;20197;-87
2021/03/18 13:26:59;;;;;;;3.37;2.00;;;4.70;99.90;;;;;;4955845;28;20208;-87
2021/03/18 13:29:31;;;;;;;2.80;2.03;;;4.70;99.90;;;;;;4941221;29;20311;-87